sensor_id;sensor_type;location;lat;lon;timestamp;temperature;humidity
17845;DHT22;9047;53.486;10.218;2023-08-12T00:00:01;19.90;99.90
17845;DHT22;9047;53.486;10.218;2023-08-12T00:02:36;19.90;99.90
17845;DHT22;9047;53.486;10.218;2023-08-12T00:05:04;19.90;99.90
17845;DHT22;9047;53.486;10.218;2023-08-12T00:07:31;19.90;99.90
17845;DHT22;9047;53.486;10.218;2023-08-12T00:09:58;19.80;99.90
17845;DHT22;9047;53.486;10.218;2023-08-12T00:12:26;19.80;99.90
17845;DHT22;9047;53.486;10.218;2023-08-12T00:14:53;19.80;99.90
17845;DHT22;9047;53.486;10.218;2023-08-12T00:17:21;19.80;99.90
17845;DHT22;9047;53.486;10.218;2023-08-12T00:19:49;19.80;99.90
17845;DHT22;9047;53.486;10.218;2023-08-12T00:22:16;19.70;99.90
17845;DHT22;9047;53.486;10.218;2023-08-12T00:24:43;19.70;99.90
17845;DHT22;9047;53.486;10.218;2023-08-12T00:27:11;19.70;99.90
17845;DHT22;9047;53.486;10.218;2023-08-12T00:29:37;19.70;99.90
17845;DHT22;9047;53.486;10.218;2023-08-12T00:32:05;19.70;99.90
17845;DHT22;9047;53.486;10.218;2023-08-12T00:34:33;19.60;99.90
17845;DHT22;9047;53.486;10.218;2023-08-12T00:37:00;19.60;99.90
17845;DHT22;9047;53.486;10.218;2023-08-12T00:39:27;19.60;99.90
17845;DHT22;9047;53.486;10.218;2023-08-12T00:41:55;19.60;99.90
17845;DHT22;9047;53.486;10.218;2023-08-12T00:44:22;19.50;99.90
17845;DHT22;9047;53.486;10.218;2023-08-12T00:46:49;19.50;99.90
17845;DHT22;9047;53.486;10.218;2023-08-12T00:49:16;19.50;99.90
17845;DHT22;9047;53.486;10.218;2023-08-12T00:51:45;19.50;99.90
17845;DHT22;9047;53.486;10.218;2023-08-12T00:54:14;19.50;99.90
17845;DHT22;9047;53.486;10.218;2023-08-12T00:56:41;19.50;99.90
17845;DHT22;9047;53.486;10.218;2023-08-12T00:59:08;19.40;99.90
17845;DHT22;9047;53.486;10.218;2023-08-12T01:01:39;19.40;99.90
17845;DHT22;9047;53.486;10.218;2023-08-12T01:04:06;19.40;99.90
17845;DHT22;9047;53.486;10.218;2023-08-12T01:06:33;19.40;99.90
17845;DHT22;9047;53.486;10.218;2023-08-12T01:09:02;19.30;99.90
17845;DHT22;9047;53.486;10.218;2023-08-12T01:11:36;19.40;99.90
17845;DHT22;9047;53.486;10.218;2023-08-12T01:14:07;19.40;99.90
17845;DHT22;9047;53.486;10.218;2023-08-12T01:16:37;19.30;99.90
17845;DHT22;9047;53.486;10.218;2023-08-12T01:19:09;19.30;99.90
17845;DHT22;9047;53.486;10.218;2023-08-12T01:21:40;19.30;99.90
17845;DHT22;9047;53.486;10.218;2023-08-12T01:24:11;19.30;99.90
17845;DHT22;9047;53.486;10.218;2023-08-12T01:26:38;19.30;99.90
17845;DHT22;9047;53.486;10.218;2023-08-12T01:29:05;19.30;99.90
17845;DHT22;9047;53.486;10.218;2023-08-12T01:31:36;19.20;99.90
17845;DHT22;9047;53.486;10.218;2023-08-12T01:34:10;19.30;99.90
17845;DHT22;9047;53.486;10.218;2023-08-12T01:36:40;19.20;99.90
17845;DHT22;9047;53.486;10.218;2023-08-12T01:39:10;19.20;99.90
17845;DHT22;9047;53.486;10.218;2023-08-12T01:41:38;19.20;99.90
17845;DHT22;9047;53.486;10.218;2023-08-12T01:44:05;19.10;99.90
17845;DHT22;9047;53.486;10.218;2023-08-12T01:46:32;19.10;99.90
17845;DHT22;9047;53.486;10.218;2023-08-12T01:49:01;19.10;99.90
17845;DHT22;9047;53.486;10.218;2023-08-12T01:51:29;19.00;99.90
17845;DHT22;9047;53.486;10.218;2023-08-12T01:53:56;19.00;99.90
17845;DHT22;9047;53.486;10.218;2023-08-12T01:56:24;19.00;99.90
17845;DHT22;9047;53.486;10.218;2023-08-12T01:58:51;19.00;99.90
17845;DHT22;9047;53.486;10.218;2023-08-12T02:01:18;19.00;99.90
17845;DHT22;9047;53.486;10.218;2023-08-12T02:03:45;18.90;99.90
17845;DHT22;9047;53.486;10.218;2023-08-12T02:06:13;18.90;99.90
17845;DHT22;9047;53.486;10.218;2023-08-12T02:08:40;18.90;99.90
17845;DHT22;9047;53.486;10.218;2023-08-12T02:11:07;18.90;99.90
17845;DHT22;9047;53.486;10.218;2023-08-12T02:13:35;18.90;99.90
17845;DHT22;9047;53.486;10.218;2023-08-12T02:16:02;18.90;99.90
17845;DHT22;9047;53.486;10.218;2023-08-12T02:18:28;18.90;99.90
17845;DHT22;9047;53.486;10.218;2023-08-12T02:20:55;18.90;99.90
17845;DHT22;9047;53.486;10.218;2023-08-12T02:23:22;18.90;99.90
17845;DHT22;9047;53.486;10.218;2023-08-12T02:25:49;18.90;99.90
17845;DHT22;9047;53.486;10.218;2023-08-12T02:28:16;18.80;99.90
17845;DHT22;9047;53.486;10.218;2023-08-12T02:30:44;18.80;99.90
17845;DHT22;9047;53.486;10.218;2023-08-12T02:33:11;18.80;99.90
17845;DHT22;9047;53.486;10.218;2023-08-12T02:35:38;18.80;99.90
17845;DHT22;9047;53.486;10.218;2023-08-12T02:38:05;18.70;99.90
17845;DHT22;9047;53.486;10.218;2023-08-12T02:40:33;18.60;99.90
17845;DHT22;9047;53.486;10.218;2023-08-12T02:43:00;18.60;99.90
17845;DHT22;9047;53.486;10.218;2023-08-12T02:45:27;18.60;99.90
17845;DHT22;9047;53.486;10.218;2023-08-12T02:47:55;18.50;99.90
17845;DHT22;9047;53.486;10.218;2023-08-12T02:50:23;18.60;99.90
17845;DHT22;9047;53.486;10.218;2023-08-12T02:52:50;18.50;99.90
17845;DHT22;9047;53.486;10.218;2023-08-12T02:55:17;18.50;99.90
17845;DHT22;9047;53.486;10.218;2023-08-12T02:57:44;18.50;99.90
17845;DHT22;9047;53.486;10.218;2023-08-12T03:00:12;18.50;99.90
17845;DHT22;9047;53.486;10.218;2023-08-12T03:02:42;18.50;99.90
17845;DHT22;9047;53.486;10.218;2023-08-12T03:05:10;18.40;99.90
17845;DHT22;9047;53.486;10.218;2023-08-12T03:07:37;18.40;99.90
17845;DHT22;9047;53.486;10.218;2023-08-12T03:10:04;18.40;99.90
17845;DHT22;9047;53.486;10.218;2023-08-12T03:12:31;18.50;99.90
17845;DHT22;9047;53.486;10.218;2023-08-12T03:14:58;18.40;99.90
17845;DHT22;9047;53.486;10.218;2023-08-12T03:17:25;18.50;99.90
17845;DHT22;9047;53.486;10.218;2023-08-12T03:19:52;18.40;99.90
17845;DHT22;9047;53.486;10.218;2023-08-12T03:22:21;18.40;99.90
17845;DHT22;9047;53.486;10.218;2023-08-12T03:24:49;18.40;99.90
17845;DHT22;9047;53.486;10.218;2023-08-12T03:27:16;18.40;99.90
17845;DHT22;9047;53.486;10.218;2023-08-12T03:29:43;18.40;99.90
17845;DHT22;9047;53.486;10.218;2023-08-12T03:32:09;18.30;99.90
17845;DHT22;9047;53.486;10.218;2023-08-12T03:34:36;18.30;99.90
17845;DHT22;9047;53.486;10.218;2023-08-12T03:37:04;18.30;99.90
17845;DHT22;9047;53.486;10.218;2023-08-12T03:39:33;18.30;99.90
17845;DHT22;9047;53.486;10.218;2023-08-12T03:41:59;18.30;99.90
17845;DHT22;9047;53.486;10.218;2023-08-12T03:44:26;18.20;99.90
17845;DHT22;9047;53.486;10.218;2023-08-12T03:46:53;18.20;99.90
17845;DHT22;9047;53.486;10.218;2023-08-12T03:49:20;18.30;99.90
17845;DHT22;9047;53.486;10.218;2023-08-12T03:51:47;18.30;99.90
17845;DHT22;9047;53.486;10.218;2023-08-12T03:54:15;18.30;99.90
17845;DHT22;9047;53.486;10.218;2023-08-12T03:56:43;18.20;99.90
17845;DHT22;9047;53.486;10.218;2023-08-12T03:59:10;18.30;99.90
17845;DHT22;9047;53.486;10.218;2023-08-12T04:01:37;18.20;99.90
17845;DHT22;9047;53.486;10.218;2023-08-12T04:04:04;18.20;99.90
17845;DHT22;9047;53.486;10.218;2023-08-12T04:06:31;18.20;99.90
17845;DHT22;9047;53.486;10.218;2023-08-12T04:08:58;18.20;99.90
17845;DHT22;9047;53.486;10.218;2023-08-12T04:11:25;18.20;99.90
17845;DHT22;9047;53.486;10.218;2023-08-12T04:13:53;18.20;99.90
17845;DHT22;9047;53.486;10.218;2023-08-12T04:16:20;18.20;99.90
17845;DHT22;9047;53.486;10.218;2023-08-12T04:18:47;18.20;99.90
17845;DHT22;9047;53.486;10.218;2023-08-12T04:21:14;18.30;99.90
17845;DHT22;9047;53.486;10.218;2023-08-12T04:23:41;18.30;99.90
17845;DHT22;9047;53.486;10.218;2023-08-12T04:26:07;18.30;99.90
17845;DHT22;9047;53.486;10.218;2023-08-12T04:28:34;18.30;99.90
17845;DHT22;9047;53.486;10.218;2023-08-12T04:31:06;18.30;99.90
17845;DHT22;9047;53.486;10.218;2023-08-12T04:33:33;18.30;99.90
17845;DHT22;9047;53.486;10.218;2023-08-12T04:35:59;18.40;99.90
17845;DHT22;9047;53.486;10.218;2023-08-12T04:38:27;18.40;99.90
17845;DHT22;9047;53.486;10.218;2023-08-12T04:40:54;18.40;99.90
17845;DHT22;9047;53.486;10.218;2023-08-12T04:43:21;18.30;99.90
17845;DHT22;9047;53.486;10.218;2023-08-12T04:45:48;18.30;99.90
17845;DHT22;9047;53.486;10.218;2023-08-12T04:48:16;18.30;99.90
17845;DHT22;9047;53.486;10.218;2023-08-12T04:50:43;18.30;99.90
17845;DHT22;9047;53.486;10.218;2023-08-12T04:53:09;18.30;99.90
17845;DHT22;9047;53.486;10.218;2023-08-12T04:55:36;18.30;99.90
17845;DHT22;9047;53.486;10.218;2023-08-12T04:58:03;18.30;99.90
17845;DHT22;9047;53.486;10.218;2023-08-12T05:00:33;18.30;99.90
17845;DHT22;9047;53.486;10.218;2023-08-12T05:03:00;18.40;99.90
17845;DHT22;9047;53.486;10.218;2023-08-12T05:05:28;18.30;99.90
17845;DHT22;9047;53.486;10.218;2023-08-12T05:07:55;18.30;99.90
17845;DHT22;9047;53.486;10.218;2023-08-12T05:10:21;18.30;99.90
17845;DHT22;9047;53.486;10.218;2023-08-12T05:12:48;18.30;99.90
17845;DHT22;9047;53.486;10.218;2023-08-12T05:15:17;18.30;99.90
17845;DHT22;9047;53.486;10.218;2023-08-12T05:17:44;18.30;99.90
17845;DHT22;9047;53.486;10.218;2023-08-12T05:20:11;18.30;99.90
17845;DHT22;9047;53.486;10.218;2023-08-12T05:22:39;18.30;99.90
17845;DHT22;9047;53.486;10.218;2023-08-12T05:25:08;18.40;99.90
17845;DHT22;9047;53.486;10.218;2023-08-12T05:27:35;18.40;99.90
17845;DHT22;9047;53.486;10.218;2023-08-12T05:30:02;18.40;99.90
17845;DHT22;9047;53.486;10.218;2023-08-12T05:32:31;18.40;99.90
17845;DHT22;9047;53.486;10.218;2023-08-12T05:34:58;18.40;99.90
17845;DHT22;9047;53.486;10.218;2023-08-12T05:37:24;18.50;99.90
17845;DHT22;9047;53.486;10.218;2023-08-12T05:39:53;18.50;99.90
17845;DHT22;9047;53.486;10.218;2023-08-12T05:42:19;18.60;99.90
17845;DHT22;9047;53.486;10.218;2023-08-12T05:44:46;18.60;99.90
17845;DHT22;9047;53.486;10.218;2023-08-12T05:47:13;18.70;99.90
17845;DHT22;9047;53.486;10.218;2023-08-12T05:49:41;18.70;99.90
17845;DHT22;9047;53.486;10.218;2023-08-12T05:54:40;18.70;99.90
17845;DHT22;9047;53.486;10.218;2023-08-12T05:57:09;18.80;99.90
17845;DHT22;9047;53.486;10.218;2023-08-12T05:59:36;18.80;99.90
17845;DHT22;9047;53.486;10.218;2023-08-12T06:02:04;18.80;99.90
17845;DHT22;9047;53.486;10.218;2023-08-12T06:04:30;18.90;99.90
17845;DHT22;9047;53.486;10.218;2023-08-12T06:06:58;18.90;99.90
17845;DHT22;9047;53.486;10.218;2023-08-12T06:09:24;18.90;99.90
17845;DHT22;9047;53.486;10.218;2023-08-12T06:11:51;18.90;99.90
17845;DHT22;9047;53.486;10.218;2023-08-12T06:14:20;18.90;99.90
17845;DHT22;9047;53.486;10.218;2023-08-12T06:16:46;18.90;99.90
17845;DHT22;9047;53.486;10.218;2023-08-12T06:19:13;19.00;99.90
17845;DHT22;9047;53.486;10.218;2023-08-12T06:21:40;19.10;99.90
17845;DHT22;9047;53.486;10.218;2023-08-12T06:24:07;19.00;99.90
17845;DHT22;9047;53.486;10.218;2023-08-12T06:26:34;19.00;99.90
17845;DHT22;9047;53.486;10.218;2023-08-12T06:29:00;19.00;99.90
17845;DHT22;9047;53.486;10.218;2023-08-12T06:31:29;19.00;99.90
17845;DHT22;9047;53.486;10.218;2023-08-12T06:33:56;19.00;99.90
17845;DHT22;9047;53.486;10.218;2023-08-12T06:36:23;18.90;99.90
17845;DHT22;9047;53.486;10.218;2023-08-12T06:38:49;18.90;99.90
17845;DHT22;9047;53.486;10.218;2023-08-12T06:41:16;18.90;99.90
17845;DHT22;9047;53.486;10.218;2023-08-12T06:43:43;18.90;99.90
17845;DHT22;9047;53.486;10.218;2023-08-12T06:46:10;18.90;99.90
17845;DHT22;9047;53.486;10.218;2023-08-12T06:48:38;19.00;99.90
17845;DHT22;9047;53.486;10.218;2023-08-12T06:51:06;19.00;99.90
17845;DHT22;9047;53.486;10.218;2023-08-12T06:53:36;19.00;99.90
17845;DHT22;9047;53.486;10.218;2023-08-12T06:56:03;19.00;99.90
17845;DHT22;9047;53.486;10.218;2023-08-12T06:58:30;19.00;99.90
17845;DHT22;9047;53.486;10.218;2023-08-12T07:00:57;19.10;99.90
17845;DHT22;9047;53.486;10.218;2023-08-12T07:03:25;19.10;99.90
17845;DHT22;9047;53.486;10.218;2023-08-12T07:05:53;19.20;99.90
17845;DHT22;9047;53.486;10.218;2023-08-12T07:08:20;19.30;99.90
17845;DHT22;9047;53.486;10.218;2023-08-12T07:10:47;19.40;99.90
17845;DHT22;9047;53.486;10.218;2023-08-12T07:13:13;19.50;99.90
17845;DHT22;9047;53.486;10.218;2023-08-12T07:15:40;19.60;99.90
17845;DHT22;9047;53.486;10.218;2023-08-12T07:18:07;19.70;99.90
17845;DHT22;9047;53.486;10.218;2023-08-12T07:20:34;19.70;99.90
17845;DHT22;9047;53.486;10.218;2023-08-12T07:23:02;19.80;99.90
17845;DHT22;9047;53.486;10.218;2023-08-12T07:25:29;19.90;99.90
17845;DHT22;9047;53.486;10.218;2023-08-12T07:27:57;19.90;99.90
17845;DHT22;9047;53.486;10.218;2023-08-12T07:30:24;20.00;99.90
17845;DHT22;9047;53.486;10.218;2023-08-12T07:32:51;20.10;99.90
17845;DHT22;9047;53.486;10.218;2023-08-12T07:35:17;20.10;99.90
17845;DHT22;9047;53.486;10.218;2023-08-12T07:37:44;20.30;99.90
17845;DHT22;9047;53.486;10.218;2023-08-12T07:40:13;20.30;99.90
17845;DHT22;9047;53.486;10.218;2023-08-12T07:42:39;20.40;99.90
17845;DHT22;9047;53.486;10.218;2023-08-12T07:45:07;20.40;99.90
17845;DHT22;9047;53.486;10.218;2023-08-12T07:47:35;20.40;99.90
17845;DHT22;9047;53.486;10.218;2023-08-12T07:50:02;20.50;99.90
17845;DHT22;9047;53.486;10.218;2023-08-12T07:52:28;20.50;99.90
17845;DHT22;9047;53.486;10.218;2023-08-12T07:54:55;20.60;99.90
17845;DHT22;9047;53.486;10.218;2023-08-12T07:57:23;20.60;99.90
17845;DHT22;9047;53.486;10.218;2023-08-12T07:59:50;20.60;99.90
17845;DHT22;9047;53.486;10.218;2023-08-12T08:02:17;20.60;99.90
17845;DHT22;9047;53.486;10.218;2023-08-12T08:04:44;20.70;99.90
17845;DHT22;9047;53.486;10.218;2023-08-12T08:07:14;20.70;99.90
17845;DHT22;9047;53.486;10.218;2023-08-12T08:09:41;20.80;99.90
17845;DHT22;9047;53.486;10.218;2023-08-12T08:12:08;20.90;99.90
17845;DHT22;9047;53.486;10.218;2023-08-12T08:14:36;21.00;99.90
17845;DHT22;9047;53.486;10.218;2023-08-12T08:17:04;21.10;99.90
17845;DHT22;9047;53.486;10.218;2023-08-12T08:19:30;21.10;99.90
17845;DHT22;9047;53.486;10.218;2023-08-12T08:21:58;21.20;99.90
17845;DHT22;9047;53.486;10.218;2023-08-12T08:24:25;21.30;99.90
17845;DHT22;9047;53.486;10.218;2023-08-12T08:26:51;21.30;99.90
17845;DHT22;9047;53.486;10.218;2023-08-12T08:29:18;21.40;99.90
17845;DHT22;9047;53.486;10.218;2023-08-12T08:31:46;21.50;99.90
17845;DHT22;9047;53.486;10.218;2023-08-12T08:34:14;21.60;99.90
17845;DHT22;9047;53.486;10.218;2023-08-12T08:36:43;21.60;99.90
17845;DHT22;9047;53.486;10.218;2023-08-12T08:39:11;21.60;99.90
17845;DHT22;9047;53.486;10.218;2023-08-12T08:41:38;21.50;99.90
17845;DHT22;9047;53.486;10.218;2023-08-12T08:44:07;21.40;99.90
17845;DHT22;9047;53.486;10.218;2023-08-12T08:46:41;21.40;99.90
17845;DHT22;9047;53.486;10.218;2023-08-12T08:49:10;21.50;99.90
17845;DHT22;9047;53.486;10.218;2023-08-12T08:51:38;21.50;99.90
17845;DHT22;9047;53.486;10.218;2023-08-12T08:54:05;21.60;99.90
17845;DHT22;9047;53.486;10.218;2023-08-12T08:56:33;21.60;99.90
17845;DHT22;9047;53.486;10.218;2023-08-12T08:59:00;21.80;99.90
17845;DHT22;9047;53.486;10.218;2023-08-12T09:01:28;21.90;99.90
17845;DHT22;9047;53.486;10.218;2023-08-12T09:03:55;21.90;99.90
17845;DHT22;9047;53.486;10.218;2023-08-12T09:06:25;22.00;99.90
17845;DHT22;9047;53.486;10.218;2023-08-12T09:08:53;22.10;99.90
17845;DHT22;9047;53.486;10.218;2023-08-12T09:11:21;22.20;99.90
17845;DHT22;9047;53.486;10.218;2023-08-12T09:13:48;22.30;99.90
17845;DHT22;9047;53.486;10.218;2023-08-12T09:16:15;22.40;99.90
17845;DHT22;9047;53.486;10.218;2023-08-12T09:18:44;22.50;99.90
17845;DHT22;9047;53.486;10.218;2023-08-12T09:21:11;22.60;99.90
17845;DHT22;9047;53.486;10.218;2023-08-12T09:23:40;22.60;99.90
17845;DHT22;9047;53.486;10.218;2023-08-12T09:26:18;22.60;99.90
17845;DHT22;9047;53.486;10.218;2023-08-12T09:28:46;22.60;99.90
17845;DHT22;9047;53.486;10.218;2023-08-12T09:31:22;22.50;99.90
17845;DHT22;9047;53.486;10.218;2023-08-12T09:33:51;22.60;99.90
17845;DHT22;9047;53.486;10.218;2023-08-12T09:36:17;22.60;99.90
17845;DHT22;9047;53.486;10.218;2023-08-12T09:38:49;22.70;99.90
17845;DHT22;9047;53.486;10.218;2023-08-12T09:41:16;22.70;99.90
17845;DHT22;9047;53.486;10.218;2023-08-12T09:43:43;22.70;99.90
17845;DHT22;9047;53.486;10.218;2023-08-12T09:46:12;22.80;99.90
17845;DHT22;9047;53.486;10.218;2023-08-12T09:48:53;22.90;99.90
17845;DHT22;9047;53.486;10.218;2023-08-12T09:51:21;22.90;99.90
17845;DHT22;9047;53.486;10.218;2023-08-12T09:53:49;22.90;99.90
17845;DHT22;9047;53.486;10.218;2023-08-12T09:56:18;22.80;99.90
17845;DHT22;9047;53.486;10.218;2023-08-12T09:58:48;22.80;99.90
17845;DHT22;9047;53.486;10.218;2023-08-12T10:01:18;22.70;99.90
17845;DHT22;9047;53.486;10.218;2023-08-12T10:03:48;22.70;99.90
17845;DHT22;9047;53.486;10.218;2023-08-12T10:06:15;22.60;99.90
17845;DHT22;9047;53.486;10.218;2023-08-12T10:08:44;22.60;99.90
17845;DHT22;9047;53.486;10.218;2023-08-12T10:11:14;22.50;99.90
17845;DHT22;9047;53.486;10.218;2023-08-12T10:13:41;22.50;99.90
17845;DHT22;9047;53.486;10.218;2023-08-12T10:16:08;22.40;99.90
17845;DHT22;9047;53.486;10.218;2023-08-12T10:18:36;22.50;99.90
17845;DHT22;9047;53.486;10.218;2023-08-12T10:21:03;22.50;99.90
17845;DHT22;9047;53.486;10.218;2023-08-12T10:23:30;22.50;99.90
17845;DHT22;9047;53.486;10.218;2023-08-12T10:26:00;22.70;99.90
17845;DHT22;9047;53.486;10.218;2023-08-12T10:28:31;22.90;99.90
17845;DHT22;9047;53.486;10.218;2023-08-12T10:31:02;23.10;99.90
17845;DHT22;9047;53.486;10.218;2023-08-12T10:33:29;23.30;99.90
17845;DHT22;9047;53.486;10.218;2023-08-12T10:35:56;23.40;99.90
17845;DHT22;9047;53.486;10.218;2023-08-12T10:38:25;23.60;99.90
17845;DHT22;9047;53.486;10.218;2023-08-12T10:40:52;23.60;99.90
17845;DHT22;9047;53.486;10.218;2023-08-12T10:43:19;23.50;99.90
17845;DHT22;9047;53.486;10.218;2023-08-12T10:45:49;23.30;99.90
17845;DHT22;9047;53.486;10.218;2023-08-12T10:48:21;23.10;99.90
17845;DHT22;9047;53.486;10.218;2023-08-12T10:50:51;22.90;99.90
17845;DHT22;9047;53.486;10.218;2023-08-12T10:53:23;22.70;99.90
17845;DHT22;9047;53.486;10.218;2023-08-12T10:55:50;22.50;99.90
17845;DHT22;9047;53.486;10.218;2023-08-12T10:58:25;22.40;99.90
17845;DHT22;9047;53.486;10.218;2023-08-12T11:00:55;22.40;99.90
17845;DHT22;9047;53.486;10.218;2023-08-12T11:03:23;22.60;99.90
17845;DHT22;9047;53.486;10.218;2023-08-12T11:05:50;22.80;99.90
17845;DHT22;9047;53.486;10.218;2023-08-12T11:08:24;23.20;99.90
17845;DHT22;9047;53.486;10.218;2023-08-12T11:10:54;23.60;99.90
17845;DHT22;9047;53.486;10.218;2023-08-12T11:13:21;23.90;99.90
17845;DHT22;9047;53.486;10.218;2023-08-12T11:15:48;24.20;99.90
17845;DHT22;9047;53.486;10.218;2023-08-12T11:18:17;24.30;99.90
17845;DHT22;9047;53.486;10.218;2023-08-12T11:20:45;24.30;99.90
17845;DHT22;9047;53.486;10.218;2023-08-12T11:23:13;24.40;99.90
17845;DHT22;9047;53.486;10.218;2023-08-12T11:25:43;24.60;99.90
17845;DHT22;9047;53.486;10.218;2023-08-12T11:28:10;24.70;99.90
17845;DHT22;9047;53.486;10.218;2023-08-12T11:30:40;24.40;99.90
17845;DHT22;9047;53.486;10.218;2023-08-12T11:33:08;24.20;99.90
17845;DHT22;9047;53.486;10.218;2023-08-12T11:35:39;24.10;99.90
17845;DHT22;9047;53.486;10.218;2023-08-12T11:38:06;23.90;99.90
17845;DHT22;9047;53.486;10.218;2023-08-12T11:40:34;23.80;99.90
17845;DHT22;9047;53.486;10.218;2023-08-12T11:43:01;23.70;99.90
17845;DHT22;9047;53.486;10.218;2023-08-12T11:45:28;23.70;99.90
17845;DHT22;9047;53.486;10.218;2023-08-12T11:47:55;23.70;99.90
17845;DHT22;9047;53.486;10.218;2023-08-12T11:50:24;23.70;99.90
17845;DHT22;9047;53.486;10.218;2023-08-12T11:52:53;23.60;99.90
17845;DHT22;9047;53.486;10.218;2023-08-12T11:55:21;23.60;99.90
17845;DHT22;9047;53.486;10.218;2023-08-12T11:57:50;23.40;99.90
17845;DHT22;9047;53.486;10.218;2023-08-12T12:00:17;23.40;99.90
17845;DHT22;9047;53.486;10.218;2023-08-12T12:02:47;23.20;99.90
17845;DHT22;9047;53.486;10.218;2023-08-12T12:05:15;23.20;99.90
17845;DHT22;9047;53.486;10.218;2023-08-12T12:07:42;23.00;99.90
17845;DHT22;9047;53.486;10.218;2023-08-12T12:10:18;22.90;99.90
17845;DHT22;9047;53.486;10.218;2023-08-12T12:12:45;22.80;99.90
17845;DHT22;9047;53.486;10.218;2023-08-12T12:15:13;22.70;99.90
17845;DHT22;9047;53.486;10.218;2023-08-12T12:17:41;22.60;99.90
17845;DHT22;9047;53.486;10.218;2023-08-12T12:20:09;22.60;99.90
17845;DHT22;9047;53.486;10.218;2023-08-12T12:22:38;22.50;99.90
17845;DHT22;9047;53.486;10.218;2023-08-12T12:25:07;22.40;99.90
17845;DHT22;9047;53.486;10.218;2023-08-12T12:27:53;22.40;99.90
17845;DHT22;9047;53.486;10.218;2023-08-12T12:30:21;22.50;99.90
17845;DHT22;9047;53.486;10.218;2023-08-12T12:32:49;22.60;99.90
17845;DHT22;9047;53.486;10.218;2023-08-12T12:35:18;22.50;99.90
17845;DHT22;9047;53.486;10.218;2023-08-12T12:37:46;22.50;99.90
17845;DHT22;9047;53.486;10.218;2023-08-12T12:40:13;22.50;99.90
17845;DHT22;9047;53.486;10.218;2023-08-12T12:42:42;22.50;99.90
17845;DHT22;9047;53.486;10.218;2023-08-12T12:45:10;22.60;99.90
17845;DHT22;9047;53.486;10.218;2023-08-12T12:47:41;22.80;99.90
17845;DHT22;9047;53.486;10.218;2023-08-12T12:50:09;23.10;99.90
17845;DHT22;9047;53.486;10.218;2023-08-12T12:52:36;23.20;99.90
17845;DHT22;9047;53.486;10.218;2023-08-12T12:55:03;23.30;99.90
17845;DHT22;9047;53.486;10.218;2023-08-12T12:57:30;23.40;99.90
17845;DHT22;9047;53.486;10.218;2023-08-12T12:59:57;23.40;99.90
17845;DHT22;9047;53.486;10.218;2023-08-12T13:02:25;23.50;99.90
17845;DHT22;9047;53.486;10.218;2023-08-12T13:04:52;23.60;99.90
17845;DHT22;9047;53.486;10.218;2023-08-12T13:07:19;23.80;99.90
17845;DHT22;9047;53.486;10.218;2023-08-12T13:09:46;23.90;99.90
17845;DHT22;9047;53.486;10.218;2023-08-12T13:12:12;24.10;99.90
17845;DHT22;9047;53.486;10.218;2023-08-12T13:14:39;24.10;99.90
17845;DHT22;9047;53.486;10.218;2023-08-12T13:19:56;23.90;99.90
17845;DHT22;9047;53.486;10.218;2023-08-12T13:22:23;23.60;99.90
17845;DHT22;9047;53.486;10.218;2023-08-12T13:24:50;23.40;99.90
17845;DHT22;9047;53.486;10.218;2023-08-12T13:27:17;23.10;99.90
17845;DHT22;9047;53.486;10.218;2023-08-12T13:29:43;22.90;99.90
17845;DHT22;9047;53.486;10.218;2023-08-12T13:32:10;22.80;99.90
17845;DHT22;9047;53.486;10.218;2023-08-12T13:34:37;22.60;99.90
17845;DHT22;9047;53.486;10.218;2023-08-12T13:37:05;22.40;99.90
17845;DHT22;9047;53.486;10.218;2023-08-12T13:39:32;22.30;99.90
17845;DHT22;9047;53.486;10.218;2023-08-12T13:41:59;22.20;99.90
17845;DHT22;9047;53.486;10.218;2023-08-12T13:44:29;22.10;99.90
17845;DHT22;9047;53.486;10.218;2023-08-12T13:46:56;21.90;99.90
17845;DHT22;9047;53.486;10.218;2023-08-12T13:49:23;21.80;99.90
17845;DHT22;9047;53.486;10.218;2023-08-12T13:51:50;21.60;99.90
17845;DHT22;9047;53.486;10.218;2023-08-12T13:54:18;21.50;99.90
17845;DHT22;9047;53.486;10.218;2023-08-12T13:56:45;21.50;99.90
17845;DHT22;9047;53.486;10.218;2023-08-12T13:59:12;21.50;99.90
17845;DHT22;9047;53.486;10.218;2023-08-12T14:01:38;21.50;99.90
17845;DHT22;9047;53.486;10.218;2023-08-12T14:04:05;21.70;99.90
17845;DHT22;9047;53.486;10.218;2023-08-12T14:06:32;22.00;99.90
17845;DHT22;9047;53.486;10.218;2023-08-12T14:08:59;22.20;99.90
17845;DHT22;9047;53.486;10.218;2023-08-12T14:11:27;22.30;99.90
17845;DHT22;9047;53.486;10.218;2023-08-12T14:13:57;22.50;99.90
17845;DHT22;9047;53.486;10.218;2023-08-12T14:16:24;22.70;99.90
17845;DHT22;9047;53.486;10.218;2023-08-12T14:18:51;22.60;99.90
17845;DHT22;9047;53.486;10.218;2023-08-12T14:21:18;22.60;99.90
17845;DHT22;9047;53.486;10.218;2023-08-12T14:23:45;22.60;99.90
17845;DHT22;9047;53.486;10.218;2023-08-12T14:26:11;22.40;99.90
17845;DHT22;9047;53.486;10.218;2023-08-12T14:28:40;22.30;99.90
17845;DHT22;9047;53.486;10.218;2023-08-12T14:31:07;22.20;99.90
17845;DHT22;9047;53.486;10.218;2023-08-12T14:33:33;22.10;99.90
17845;DHT22;9047;53.486;10.218;2023-08-12T14:36:13;22.00;99.90
17845;DHT22;9047;53.486;10.218;2023-08-12T14:38:39;22.10;99.90
17845;DHT22;9047;53.486;10.218;2023-08-12T14:41:06;22.10;99.90
17845;DHT22;9047;53.486;10.218;2023-08-12T14:43:33;22.10;99.90
17845;DHT22;9047;53.486;10.218;2023-08-12T14:46:01;22.20;99.90
17845;DHT22;9047;53.486;10.218;2023-08-12T14:48:31;22.20;99.90
17845;DHT22;9047;53.486;10.218;2023-08-12T14:51:03;22.20;99.90
17845;DHT22;9047;53.486;10.218;2023-08-12T14:53:30;22.10;99.90
17845;DHT22;9047;53.486;10.218;2023-08-12T14:55:57;22.10;99.90
17845;DHT22;9047;53.486;10.218;2023-08-12T14:58:24;22.10;99.90
17845;DHT22;9047;53.486;10.218;2023-08-12T15:00:51;22.10;99.90
17845;DHT22;9047;53.486;10.218;2023-08-12T15:03:19;22.20;99.90
17845;DHT22;9047;53.486;10.218;2023-08-12T15:05:46;22.20;99.90
17845;DHT22;9047;53.486;10.218;2023-08-12T15:08:12;22.30;99.90
17845;DHT22;9047;53.486;10.218;2023-08-12T15:10:39;22.30;99.90
17845;DHT22;9047;53.486;10.218;2023-08-12T15:13:06;22.40;99.90
17845;DHT22;9047;53.486;10.218;2023-08-12T15:15:33;22.40;99.90
17845;DHT22;9047;53.486;10.218;2023-08-12T15:18:00;22.50;99.90
17845;DHT22;9047;53.486;10.218;2023-08-12T15:20:28;22.60;99.90
17845;DHT22;9047;53.486;10.218;2023-08-12T15:22:55;22.70;99.90
17845;DHT22;9047;53.486;10.218;2023-08-12T15:25:22;22.90;99.90
17845;DHT22;9047;53.486;10.218;2023-08-12T15:27:49;23.00;99.90
17845;DHT22;9047;53.486;10.218;2023-08-12T15:30:15;23.20;99.90
17845;DHT22;9047;53.486;10.218;2023-08-12T15:32:42;23.50;99.90
17845;DHT22;9047;53.486;10.218;2023-08-12T15:35:09;23.80;99.90
17845;DHT22;9047;53.486;10.218;2023-08-12T15:37:37;23.90;99.90